Time;durP1;ratioP1;P1;durP2;ratioP2;P2;SDS_P1;SDS_P2;PMS_P1;PMS_P2;Temp;Humidity;BMP_temperature;BMP_pressure;BME280_temperature;BME280_humidity;BME280_pressure;Samples;Min_cycle;Max_cycle;Signal;HPM_P1;HPM_P2
2023/03/30 00:00:50;;;;;;;5.90;2.90;;;;;;;5.91;46.32;100937.77;108524;1280;21993;-60
2023/03/30 00:03:21;;;;;;;5.90;3.00;;;;;;;5.90;46.49;100934.79;107767;1281;1002442;-69
2023/03/30 00:05:51;;;;;;;4.50;2.60;;;;;;;5.89;46.32;100935.64;108499;1281;21982;-69
2023/03/30 00:08:17;;;;;;;5.00;2.50;;;;;;;5.92;46.32;100937.08;108520;1277;22050;-69
2023/03/30 00:10:48;;;;;;;6.10;3.00;;;;;;;5.95;46.20;100938.70;108446;1281;22044;-69
2023/03/30 00:13:15;;;;;;;5.00;2.90;;;;;;;5.98;46.39;100936.48;108438;1281;21982;-60
2023/03/30 00:15:42;;;;;;;4.70;2.80;;;;;;;6.00;46.16;100936.70;107723;1281;1002227;-60
2023/03/30 00:18:10;;;;;;;5.50;2.60;;;;;;;5.99;46.27;100939.11;108496;1281;22018;-61
2023/03/30 00:20:47;;;;;;;6.20;2.60;;;;;;;5.97;46.58;100940.29;108482;1281;21990;-60
2023/03/30 00:23:15;;;;;;;5.30;2.70;;;;;;;5.92;46.65;100938.64;108468;1281;22030;-69
2023/03/30 00:25:42;;;;;;;5.00;2.60;;;;;;;5.86;46.95;100942.90;108502;1281;21985;-61
2023/03/30 00:28:07;;;;;;;5.20;3.00;;;;;;;5.88;46.49;100945.20;108470;1281;21992;-61
2023/03/30 00:30:35;;;;;;;6.40;3.30;;;;;;;5.78;47.06;100946.78;108433;1281;21994;-60
2023/03/30 00:33:03;;;;;;;5.90;2.90;;;;;;;5.80;46.87;100943.69;108483;1281;22115;-61
2023/03/30 00:35:31;;;;;;;5.60;3.10;;;;;;;5.80;46.98;100945.23;108444;1281;21991;-62
2023/03/30 00:38:00;;;;;;;5.40;2.60;;;;;;;5.75;47.28;100946.56;107701;1281;1002930;-61
2023/03/30 00:40:26;;;;;;;6.30;2.90;;;;;;;5.72;47.35;100948.62;108573;1274;23045;-68
2023/03/30 00:43:10;;;;;;;5.40;2.60;;;;;;;5.76;46.89;100946.23;108534;1281;21980;-69
2023/03/30 00:45:37;;;;;;;5.40;3.10;;;;;;;5.71;47.12;100949.98;107717;1281;1003134;-69
2023/03/30 00:48:05;;;;;;;4.30;2.70;;;;;;;5.73;46.75;100947.40;108452;1281;21993;-61
2023/03/30 00:50:46;;;;;;;5.50;2.70;;;;;;;5.75;46.40;100949.17;108379;1277;22056;-60
2023/03/30 00:53:36;;;;;;;6.30;2.60;;;;;;;5.78;46.52;100950.80;108454;1281;22022;-60
2023/03/30 00:56:03;;;;;;;4.80;2.40;;;;;;;5.79;46.50;100954.98;108320;1281;22028;-60
2023/03/30 00:58:30;;;;;;;6.90;2.90;;;;;;;5.74;46.67;100952.46;108495;1281;21979;-69
2023/03/30 01:00:57;;;;;;;6.70;2.80;;;;;;;5.67;46.56;100952.88;108340;1277;22029;-69
2023/03/30 01:03:31;;;;;;;6.10;2.90;;;;;;;5.64;46.37;100952.99;107834;1281;1002316;-69
2023/03/30 01:06:00;;;;;;;8.30;2.70;;;;;;;5.60;46.38;100957.98;108416;1281;21993;-69
2023/03/30 01:08:31;;;;;;;6.40;2.50;;;;;;;5.56;46.49;100962.42;108523;1280;21990;-67
2023/03/30 01:11:02;;;;;;;5.20;2.50;;;;;;;5.53;46.44;100965.00;108425;1281;22009;-69
2023/03/30 01:13:31;;;;;;;6.40;2.60;;;;;;;5.52;46.34;100966.36;108430;1281;22046;-69
2023/03/30 01:16:12;;;;;;;5.40;2.70;;;;;;;5.49;46.15;100967.02;108495;1281;22025;-60
2023/03/30 01:19:05;;;;;;;4.10;2.10;;;;;;;5.46;45.79;100966.09;107725;1281;1002959;-61
2023/03/30 01:21:59;;;;;;;5.10;2.30;;;;;;;5.39;45.77;100968.75;108486;1281;22039;-60
2023/03/30 01:24:47;;;;;;;6.10;2.30;;;;;;;5.33;45.64;100967.25;108338;1281;22111;-60
2023/03/30 01:27:38;;;;;;;6.10;2.70;;;;;;;5.31;45.85;100971.02;108485;1281;21992;-69
2023/03/30 01:30:13;;;;;;;5.70;2.20;;;;;;;5.29;45.74;100972.56;107704;1281;1002463;-69
2023/03/30 01:33:19;;;;;;;5.40;2.50;;;;;;;5.26;45.61;100971.98;108321;1281;23661;-69
2023/03/30 01:36:08;;;;;;;5.30;2.60;;;;;;;5.25;45.70;100971.96;108519;1281;22028;-70
2023/03/30 01:38:43;;;;;;;6.60;2.20;;;;;;;5.24;45.81;100974.55;107743;1277;1002315;-60
2023/03/30 01:41:18;;;;;;;5.70;2.40;;;;;;;5.26;45.63;100978.25;108455;1281;23605;-60
2023/03/30 01:44:01;;;;;;;4.60;2.10;;;;;;;5.27;45.44;100975.65;108457;1281;22001;-69
2023/03/30 01:46:41;;;;;;;5.10;2.40;;;;;;;5.24;45.48;100978.91;108497;1281;22487;-68
2023/03/30 01:49:21;;;;;;;6.30;2.20;;;;;;;5.23;45.29;100982.02;108574;1280;22066;-60
2023/03/30 01:51:56;;;;;;;4.90;2.40;;;;;;;5.26;45.21;100976.70;108487;1281;23751;-60
2023/03/30 01:54:23;;;;;;;5.20;1.90;;;;;;;5.26;45.29;100977.20;108505;1281;21989;-69
2023/03/30 01:56:53;;;;;;;6.00;2.40;;;;;;;5.22;45.32;100979.39;108563;1281;22024;-69
2023/03/30 01:59:26;;;;;;;;;;;;;;;5.19;45.19;100982.30;108487;1281;21961;-60
2023/03/30 02:01:52;;;;;;;4.80;2.10;;;;;;;5.15;45.10;100982.55;108466;1281;21988;-69
2023/03/30 02:04:20;;;;;;;5.60;2.20;;;;;;;5.07;45.61;100989.36;108538;1281;21978;-60
2023/03/30 02:06:56;;;;;;;6.50;2.20;;;;;;;4.99;45.48;100994.08;108275;1282;22509;-69
2023/03/30 02:09:22;;;;;;;4.00;2.20;;;;;;;4.95;45.37;100996.94;108284;1281;22448;-69
2023/03/30 02:11:50;;;;;;;7.00;2.40;;;;;;;4.88;45.51;100997.85;107477;1281;1003168;-69
2023/03/30 02:14:16;;;;;;;5.70;2.50;;;;;;;4.83;45.56;100995.83;108444;1281;22036;-68
2023/03/30 02:16:48;;;;;;;4.30;2.50;;;;;;;4.79;45.50;100998.52;108395;1281;21993;-60
2023/03/30 02:19:16;;;;;;;5.70;2.00;;;;;;;4.74;45.85;101000.67;108576;1281;22029;-69
2023/03/30 02:21:49;;;;;;;4.40;2.10;;;;;;;4.70;45.83;101002.34;108376;1282;22024;-69
2023/03/30 02:24:19;;;;;;;4.80;2.30;;;;;;;4.67;45.66;101002.27;108318;1281;24393;-69
2023/03/30 02:26:46;;;;;;;5.20;2.60;;;;;;;4.63;45.72;100998.36;108401;1281;22034;-60
2023/03/30 02:29:13;;;;;;;5.90;2.10;;;;;;;4.59;45.77;100995.50;107633;1281;1003544;-61
2023/03/30 02:31:40;;;;;;;5.20;2.40;;;;;;;4.57;45.74;100998.40;107737;1281;1002577;-70
2023/03/30 02:34:25;;;;;;;3.40;1.80;;;;;;;4.54;45.54;101000.08;107710;1278;1003185;-61
2023/03/30 02:37:14;;;;;;;4.20;2.00;;;;;;;4.51;45.72;101004.86;108531;1281;22021;-70
2023/03/30 02:40:17;;;;;;;6.50;2.10;;;;;;;4.49;45.72;101010.21;108419;1281;22104;-61
2023/03/30 02:43:02;;;;;;;5.00;2.30;;;;;;;4.43;45.86;101007.30;107751;1276;1002818;-59
2023/03/30 02:45:34;;;;;;;4.50;2.30;;;;;;;4.36;45.78;101013.23;108415;1278;21985;-69
2023/03/30 02:48:24;;;;;;;6.20;2.30;;;;;;;4.27;46.16;101014.77;108271;1281;21983;-69
2023/03/30 02:50:57;;;;;;;6.00;2.70;;;;;;;4.23;45.88;101014.12;108396;1269;22083;-68
2023/03/30 02:53:44;;;;;;;5.40;2.40;;;;;;;4.19;46.13;101018.91;108427;1281;21992;-59
2023/03/30 02:56:22;;;;;;;4.50;2.30;;;;;;;4.16;45.91;101015.20;108414;1281;22153;-59
2023/03/30 02:58:55;;;;;;;5.40;2.50;;;;;;;4.11;45.85;101017.67;108437;1281;24320;-68
2023/03/30 03:01:27;;;;;;;4.50;2.50;;;;;;;4.07;45.92;101019.15;108407;1281;21983;-68
2023/03/30 03:03:57;;;;;;;6.80;3.20;;;;;;;4.06;46.00;101025.19;107588;1281;1003165;-68
2023/03/30 03:06:24;;;;;;;5.10;2.70;;;;;;;4.03;46.30;101027.54;108495;1281;24325;-59
2023/03/30 03:08:53;;;;;;;5.00;2.30;;;;;;;4.00;46.20;101027.30;108284;1281;21987;-59
2023/03/30 03:11:19;;;;;;;6.20;3.10;;;;;;;3.97;46.28;101030.53;108416;1281;22449;-69
2023/03/30 03:13:46;;;;;;;4.50;2.10;;;;;;;3.92;46.43;101031.60;108455;1281;21990;-59
2023/03/30 03:16:12;;;;;;;9.40;2.70;;;;;;;3.91;45.73;101035.24;108380;1281;22255;-68
2023/03/30 03:18:40;;;;;;;5.10;2.30;;;;;;;3.87;46.34;101037.92;108376;1281;21994;-59
2023/03/30 03:21:09;;;;;;;5.50;2.80;;;;;;;3.81;46.54;101034.13;108458;1281;21984;-68
2023/03/30 03:23:36;;;;;;;6.70;2.80;;;;;;;3.78;46.31;101034.02;108438;1280;21983;-59
2023/03/30 03:26:03;;;;;;;6.80;3.10;;;;;;;3.78;46.28;101040.10;108408;1274;21981;-60
2023/03/30 03:28:30;;;;;;;5.20;2.40;;;;;;;3.78;46.35;101036.99;108458;1280;22008;-69
2023/03/30 03:30:57;;;;;;;6.40;3.10;;;;;;;3.80;46.35;101037.55;108445;1280;21971;-69
2023/03/30 03:33:23;;;;;;;5.30;2.40;;;;;;;3.81;46.17;101037.41;107717;1281;1003167;-59
2023/03/30 03:35:52;;;;;;;6.20;3.00;;;;;;;3.81;46.11;101035.67;108388;1281;22011;-60
2023/03/30 03:38:20;;;;;;;7.00;2.50;;;;;;;3.81;45.72;101029.06;108477;1280;21988;-59
2023/03/30 03:40:50;;;;;;;6.50;2.50;;;;;;;3.81;46.05;101032.71;108544;1281;21986;-69
2023/03/30 03:43:16;;;;;;;6.40;2.50;;;;;;;3.81;46.12;101029.25;107865;1277;1002349;-59
2023/03/30 03:45:45;;;;;;;6.40;2.40;;;;;;;3.76;46.18;101030.35;108490;1281;23035;-60
2023/03/30 03:48:12;;;;;;;4.90;2.30;;;;;;;3.73;46.41;101030.45;108613;1281;21984;-68
2023/03/30 03:50:37;;;;;;;4.80;2.10;;;;;;;3.77;46.24;101028.45;108510;1277;21983;-70
2023/03/30 03:53:04;;;;;;;5.10;2.20;;;;;;;3.83;46.34;101030.70;107738;1281;1002616;-61
2023/03/30 03:55:33;;;;;;;8.40;3.20;;;;;;;3.83;46.60;101034.70;108481;1280;21986;-69
2023/03/30 03:58:02;;;;;;;6.30;2.60;;;;;;;3.88;46.43;101034.83;108453;1281;22080;-60
2023/03/30 04:00:29;;;;;;;7.90;3.20;;;;;;;3.90;46.25;101037.48;108538;1281;23559;-60
2023/03/30 04:03:07;;;;;;;4.80;2.30;;;;;;;3.95;46.45;101041.42;107807;1281;1003616;-59
2023/03/30 04:05:41;;;;;;;5.60;2.60;;;;;;;4.00;46.18;101041.02;108609;1281;21981;-70
2023/03/30 04:08:09;;;;;;;8.70;2.20;;;;;;;4.03;46.21;101041.45;107835;1281;1002560;-60
2023/03/30 04:10:38;;;;;;;5.90;2.40;;;;;;;4.06;46.41;101041.70;108619;1281;21978;-69
2023/03/30 04:13:07;;;;;;;8.80;2.70;;;;;;;4.10;46.44;101040.06;107838;1281;1002762;-68
2023/03/30 04:15:34;;;;;;;18.30;2.60;;;;;;;4.14;46.48;101037.73;108577;1281;21991;-67
2023/03/30 04:18:00;;;;;;;9.00;2.60;;;;;;;4.21;46.52;101040.66;108644;1281;21983;-67
2023/03/30 04:20:29;;;;;;;5.30;2.70;;;;;;;4.28;46.29;101043.96;107665;1281;1002478;-67
2023/03/30 04:23:00;;;;;;;8.40;2.80;;;;;;;4.34;46.51;101044.97;108648;1281;22018;-67
2023/03/30 04:25:27;;;;;;;7.30;3.40;;;;;;;4.39;46.40;101043.17;108610;1281;22021;-60
2023/03/30 04:27:54;;;;;;;7.70;3.30;;;;;;;4.43;46.36;101044.84;108378;1281;21984;-69
2023/03/30 04:30:23;;;;;;;9.20;3.40;;;;;;;4.46;46.33;101047.16;108473;1281;23044;-68
2023/03/30 04:33:22;;;;;;;9.60;3.40;;;;;;;4.52;46.15;101045.90;108401;1281;21982;-62
2023/03/30 04:35:40;;;;;;;8.50;2.90;;;;;;;4.54;46.31;101049.77;108377;1281;21988;-61
2023/03/30 04:38:07;;;;;;;10.00;3.90;;;;;;;4.59;46.26;101046.59;107666;1281;1002398;-68
2023/03/30 04:40:33;;;;;;;5.80;2.70;;;;;;;4.66;46.03;101045.18;107702;1281;1003417;-62
2023/03/30 04:43:01;;;;;;;7.80;2.80;;;;;;;4.74;46.20;101045.19;107718;1281;1002916;-68
2023/03/30 04:45:28;;;;;;;6.10;2.80;;;;;;;4.86;46.10;101049.11;108495;1279;21990;-69
2023/03/30 04:47:53;;;;;;;9.00;3.10;;;;;;;4.94;46.13;101049.61;108503;1281;21992;-67
2023/03/30 04:50:20;;;;;;;9.00;3.40;;;;;;;5.01;46.16;101046.83;108467;1281;21988;-67
2023/03/30 04:52:46;;;;;;;7.30;3.30;;;;;;;5.10;46.06;101045.27;108454;1278;21982;-60
2023/03/30 04:55:12;;;;;;;8.70;2.70;;;;;;;5.22;46.29;101044.29;108394;1281;23637;-68
2023/03/30 04:57:39;;;;;;;6.90;2.80;;;;;;;5.32;46.00;101042.92;108570;1281;21995;-66
2023/03/30 05:00:07;;;;;;;6.80;3.00;;;;;;;5.48;46.06;101046.02;108540;1274;21985;-61
2023/03/30 05:02:35;;;;;;;6.10;3.00;;;;;;;5.66;45.91;101046.02;107691;1281;1002988;-61
2023/03/30 05:05:01;;;;;;;13.50;5.90;;;;;;;5.78;45.71;101047.61;107670;1281;1002548;-61
2023/03/30 05:07:28;;;;;;;10.10;4.60;;;;;;;5.89;45.61;101049.92;108509;1281;23027;-67
2023/03/30 05:09:57;;;;;;;6.50;3.00;;;;;;;6.03;45.35;101050.17;108560;1281;21989;-61
2023/03/30 05:12:24;;;;;;;10.80;5.30;;;;;;;6.22;45.45;101048.05;108382;1281;22003;-67
2023/03/30 05:14:50;;;;;;;8.40;3.30;;;;;;;6.35;45.13;101047.39;108341;1277;22130;-67
2023/03/30 05:17:16;;;;;;;5.10;2.60;;;;;;;6.50;45.02;101046.73;108375;1281;21988;-61
2023/03/30 05:19:42;;;;;;;6.60;2.80;;;;;;;6.67;45.06;101045.77;110187;1281;22099;-61
2023/03/30 05:22:08;;;;;;;5.70;2.60;;;;;;;6.85;45.20;101045.51;108372;1281;21985;-61
2023/03/30 05:24:33;;;;;;;5.10;2.40;;;;;;;6.98;44.71;101040.10;108438;1281;21993;-61
2023/03/30 05:27:01;;;;;;;7.90;3.50;;;;;;;7.14;44.54;101040.99;108496;1281;21983;-61
2023/03/30 05:29:27;;;;;;;7.60;2.70;;;;;;;7.27;44.00;101044.82;108561;1281;22040;-62
2023/03/30 05:31:52;;;;;;;11.60;2.80;;;;;;;7.43;44.12;101044.31;108544;1281;21995;-62
2023/03/30 05:34:19;;;;;;;7.10;2.80;;;;;;;7.55;43.82;101043.04;108494;1281;22487;-62
2023/03/30 05:36:45;;;;;;;4.70;2.00;;;;;;;7.68;44.06;101043.35;108515;1281;23725;-67
2023/03/30 05:39:10;;;;;;;6.10;2.50;;;;;;;7.82;44.21;101041.21;108407;1281;21985;-61
2023/03/30 05:41:36;;;;;;;5.80;2.10;;;;;;;7.95;43.82;101040.80;108221;1281;21985;-67
2023/03/30 05:44:03;;;;;;;5.00;2.60;;;;;;;8.03;43.11;101042.11;107689;1281;1002175;-61
2023/03/30 05:46:30;;;;;;;9.30;2.90;;;;;;;8.18;43.38;101040.48;108489;1281;21992;-69
2023/03/30 05:48:55;;;;;;;5.30;2.60;;;;;;;8.34;43.04;101043.23;108596;1281;22443;-61
2023/03/30 05:51:21;;;;;;;4.50;1.90;;;;;;;8.48;42.96;101047.37;108447;1281;22045;-61
2023/03/30 05:53:47;;;;;;;7.50;2.60;;;;;;;8.58;42.52;101045.88;108401;1281;21985;-61
2023/03/30 05:56:12;;;;;;;7.30;2.30;;;;;;;8.70;42.77;101046.30;108385;1281;21984;-67
2023/03/30 05:58:38;;;;;;;7.80;2.70;;;;;;;8.84;42.40;101049.18;108412;1281;21993;-68
2023/03/30 06:01:04;;;;;;;5.40;2.60;;;;;;;8.97;42.62;101043.48;108429;1277;21982;-61
2023/03/30 06:03:32;;;;;;;4.50;2.10;;;;;;;9.12;42.97;101040.22;108641;1281;21980;-61
2023/03/30 06:05:59;;;;;;;5.30;1.80;;;;;;;9.27;42.66;101038.35;107736;1281;1002324;-61
2023/03/30 06:08:25;;;;;;;6.10;2.80;;;;;;;9.35;41.55;101039.25;108479;1282;21980;-61
2023/03/30 06:11:02;;;;;;;3.80;1.90;;;;;;;9.42;40.90;101041.21;108583;1278;22071;-60
2023/03/30 06:13:33;;;;;;;5.60;2.10;;;;;;;9.57;41.55;101040.73;108578;1278;21970;-65
2023/03/30 06:15:59;;;;;;;3.70;1.70;;;;;;;9.66;40.90;101040.58;108607;1281;21985;-61
2023/03/30 06:18:26;;;;;;;5.60;2.00;;;;;;;9.78;40.74;101034.81;108515;1270;22024;-60
2023/03/30 06:20:51;;;;;;;7.40;1.50;;;;;;;9.95;41.23;101029.91;108437;1281;22036;-60
2023/03/30 06:23:18;;;;;;;4.90;1.80;;;;;;;10.09;41.04;101032.38;108437;1281;23712;-65
2023/03/30 06:25:46;;;;;;;3.50;2.00;;;;;;;10.28;40.88;101033.95;108417;1275;23631;-64
2023/03/30 06:28:11;;;;;;;4.00;1.60;;;;;;;10.41;40.52;101033.94;108534;1281;21951;-60
2023/03/30 06:30:37;;;;;;;6.40;1.90;;;;;;;10.57;40.96;101031.66;108445;1277;21993;-65
2023/03/30 06:33:04;;;;;;;2.80;1.40;;;;;;;10.76;40.84;101032.16;108458;1281;21991;-60
2023/03/30 06:35:30;;;;;;;4.70;2.20;;;;;;;10.90;40.51;101027.89;108404;1277;21990;-65
2023/03/30 06:37:56;;;;;;;3.40;1.80;;;;;;;10.93;38.65;101026.30;108493;1281;23631;-67
2023/03/30 06:40:22;;;;;;;5.60;2.30;;;;;;;10.94;38.83;101022.26;107871;1281;1002372;-63
2023/03/30 06:42:48;;;;;;;4.00;1.80;;;;;;;11.06;39.79;101017.83;108674;1281;21988;-60
2023/03/30 06:45:14;;;;;;;3.50;1.80;;;;;;;11.16;38.95;101015.85;108516;1281;21982;-59
2023/03/30 06:47:40;;;;;;;5.20;1.60;;;;;;;11.29;38.17;101012.46;108488;1281;21983;-60
2023/03/30 06:50:06;;;;;;;3.70;1.30;;;;;;;11.40;38.48;101010.83;108497;1281;21981;-62
2023/03/30 06:52:36;;;;;;;3.20;1.40;;;;;;;11.50;37.06;101010.41;108555;1278;21976;-66
2023/03/30 06:55:05;;;;;;;4.40;1.40;;;;;;;11.62;37.35;101012.09;108588;1281;21981;-65
2023/03/30 06:57:31;;;;;;;4.60;2.20;;;;;;;11.83;38.73;101009.48;108432;1281;21977;-65
2023/03/30 06:59:57;;;;;;;5.50;2.20;;;;;;;11.94;37.48;101011.69;108309;1281;21987;-65
2023/03/30 07:02:24;;;;;;;6.00;2.20;;;;;;;12.00;37.02;101013.42;108443;1281;21977;-65
2023/03/30 07:04:51;;;;;;;7.50;3.00;;;;;;;12.13;37.56;101013.85;107757;1281;1002365;-62
2023/03/30 07:07:17;;;;;;;4.90;1.90;;;;;;;12.15;35.79;101009.26;108381;1281;22504;-68
2023/03/30 07:09:44;;;;;;;7.20;3.20;;;;;;;12.24;37.31;101007.61;108779;1281;23128;-59
2023/03/30 07:12:15;;;;;;;5.70;2.70;;;;;;;12.44;37.42;101009.17;108419;1281;22715;-66
2023/03/30 07:14:43;;;;;;;4.80;2.10;;;;;;;12.64;37.21;101010.56;110439;1281;22441;-61
2023/03/30 07:17:08;;;;;;;4.00;1.70;;;;;;;12.69;35.44;101006.98;110555;1281;22262;-60
2023/03/30 07:19:35;;;;;;;3.70;2.00;;;;;;;12.70;34.94;101002.21;110580;1281;21868;-60
2023/03/30 07:22:02;;;;;;;4.80;2.30;;;;;;;12.76;35.67;100992.80;109036;1281;21969;-60
2023/03/30 07:24:30;;;;;;;6.10;2.80;;;;;;;12.80;35.74;100993.65;109297;1281;22446;-68
2023/03/30 07:26:57;;;;;;;4.80;1.80;;;;;;;12.96;35.99;100993.45;109425;1281;24463;-68
2023/03/30 07:29:23;;;;;;;2.80;1.50;;;;;;;13.21;36.47;100989.77;108469;1269;21986;-59
2023/03/30 07:31:49;;;;;;;4.00;1.60;;;;;;;13.46;36.61;100987.18;108534;1281;21981;-60
2023/03/30 07:34:15;;;;;;;4.60;1.50;;;;;;;13.57;34.64;100982.97;108482;1281;22446;-69
2023/03/30 07:36:41;;;;;;;4.10;1.60;;;;;;;13.61;33.94;100977.10;108556;1281;22046;-60
2023/03/30 07:39:09;;;;;;;2.30;1.30;;;;;;;13.65;33.95;100977.55;108530;1281;22005;-59
2023/03/30 07:41:35;;;;;;;5.30;1.60;;;;;;;13.69;33.37;100975.91;108504;1281;22019;-69
2023/03/30 07:44:01;;;;;;;3.20;1.60;;;;;;;13.68;33.39;100973.27;108603;1281;21982;-68
2023/03/30 07:46:27;;;;;;;4.10;1.90;;;;;;;13.68;33.77;100973.09;108413;1270;21972;-68
2023/03/30 07:48:53;;;;;;;5.00;1.80;;;;;;;13.74;33.96;100966.13;108595;1281;21985;-68
2023/03/30 07:51:20;;;;;;;5.00;1.40;;;;;;;14.04;35.01;100964.04;108588;1281;21984;-60
2023/03/30 07:53:46;;;;;;;3.60;1.70;;;;;;;14.31;34.27;100958.27;108596;1281;21982;-60
2023/03/30 07:56:12;;;;;;;4.90;1.80;;;;;;;14.30;32.58;100960.75;108549;1281;21984;-68
2023/03/30 07:58:38;;;;;;;3.70;1.80;;;;;;;14.26;32.52;100963.65;108534;1281;21983;-61
2023/03/30 08:01:05;;;;;;;2.40;1.40;;;;;;;14.17;32.74;100961.70;108627;1281;21995;-69
2023/03/30 08:03:30;;;;;;;5.60;2.50;;;;;;;13.90;32.48;100962.87;108466;1281;22443;-60
2023/03/30 08:05:59;;;;;;;3.70;1.70;;;;;;;13.72;33.02;100969.50;108521;1281;21979;-60
2023/03/30 08:08:26;;;;;;;3.70;1.40;;;;;;;13.70;33.16;100967.95;108552;1282;21982;-60
2023/03/30 08:10:52;;;;;;;2.70;1.40;;;;;;;13.54;32.67;100965.20;108619;1281;21986;-62
2023/03/30 08:13:19;;;;;;;3.70;1.80;;;;;;;13.41;33.22;100960.80;108514;1281;23073;-61
2023/03/30 08:15:46;;;;;;;3.70;1.90;;;;;;;13.30;33.83;100957.77;108475;1281;21981;-69
2023/03/30 08:18:13;;;;;;;3.70;1.30;;;;;;;13.34;33.34;100959.14;108536;1281;22000;-68
2023/03/30 08:20:42;;;;;;;3.50;1.60;;;;;;;13.62;32.43;100948.68;108471;1281;21982;-61
2023/03/30 08:23:09;;;;;;;7.90;3.10;;;;;;;13.92;32.14;100939.55;107800;1281;1002458;-69
2023/03/30 08:25:35;;;;;;;6.60;3.40;;;;;;;14.11;31.99;100938.86;108517;1281;21979;-68
2023/03/30 08:28:20;;;;;;;4.10;1.60;;;;;;;14.11;31.38;100937.81;108597;1281;23615;-62
2023/03/30 08:30:48;;;;;;;4.40;2.90;;;;;;;13.97;30.27;100936.99;108574;1281;22065;-70
2023/03/30 08:33:16;;;;;;;4.00;1.60;;;;;;;14.03;31.08;100930.17;108605;1280;22998;-70
2023/03/30 08:35:45;;;;;;;5.10;2.30;;;;;;;14.18;31.76;100929.04;108498;1277;22004;-69
2023/03/30 08:38:14;;;;;;;4.70;2.00;;;;;;;14.23;31.65;100929.11;108489;1281;21989;-69
2023/03/30 08:40:40;;;;;;;2.50;1.50;;;;;;;14.40;31.64;100927.20;108320;1281;22019;-61
2023/03/30 08:43:42;;;;;;;3.30;1.90;;;;;;;14.52;31.78;100929.09;108199;1281;21984;-61
2023/03/30 08:46:14;;;;;;;5.10;1.70;;;;;;;14.56;29.83;100929.71;108479;1280;24385;-61
2023/03/30 08:48:41;;;;;;;3.90;1.50;;;;;;;14.65;29.55;100929.02;108526;1281;21997;-61
2023/03/30 08:51:11;;;;;;;3.50;1.30;;;;;;;14.70;30.03;100929.80;108509;1281;23259;-69
2023/03/30 08:53:37;;;;;;;3.30;1.30;;;;;;;15.02;30.94;100924.90;108400;1281;21991;-70
2023/03/30 08:56:19;;;;;;;2.80;1.20;;;;;;;15.21;29.73;100918.48;108306;1281;21985;-69
2023/03/30 08:58:49;;;;;;;3.30;1.80;;;;;;;15.30;28.87;100913.67;108579;1281;23647;-61
2023/03/30 09:01:19;;;;;;;4.30;2.10;;;;;;;15.24;28.19;100919.48;108602;1281;21983;-61
2023/03/30 09:04:16;;;;;;;3.40;1.30;;;;;;;15.32;27.86;100916.09;108312;1281;21983;-61
2023/03/30 09:06:54;;;;;;;5.40;1.40;;;;;;;15.57;28.39;100908.77;108484;1281;22446;-61
2023/03/30 09:09:22;;;;;;;4.00;1.60;;;;;;;15.70;28.51;100904.40;108517;1278;21979;-69
2023/03/30 09:12:15;;;;;;;4.40;2.20;;;;;;;15.71;28.11;100909.50;108615;1281;21988;-61
2023/03/30 09:14:52;;;;;;;3.30;1.40;;;;;;;15.62;27.01;100911.30;108422;1281;21986;-61
2023/03/30 09:17:20;;;;;;;4.00;1.50;;;;;;;15.72;28.50;100903.45;108490;1281;21983;-61
2023/03/30 09:20:05;;;;;;;3.70;1.70;;;;;;;15.99;28.72;100898.02;108400;1281;21988;-68
2023/03/30 09:22:38;;;;;;;5.00;1.90;;;;;;;15.98;27.82;100895.56;108312;1281;21979;-62
2023/03/30 09:25:16;;;;;;;2.40;1.40;;;;;;;16.05;28.85;100896.27;108407;1274;22025;-62
2023/03/30 09:27:48;;;;;;;4.50;1.50;;;;;;;16.01;28.71;100890.90;108480;1281;23220;-68
2023/03/30 09:30:20;;;;;;;3.40;1.40;;;;;;;16.09;28.95;100883.94;108386;1281;21985;-62
2023/03/30 09:32:56;;;;;;;4.50;2.00;;;;;;;16.40;28.97;100878.67;108410;1281;22453;-61
2023/03/30 09:35:25;;;;;;;4.40;3.00;;;;;;;16.68;28.67;100878.39;108435;1281;22823;-61
2023/03/30 09:37:53;;;;;;;3.20;1.80;;;;;;;16.82;27.73;100879.38;108302;1281;21984;-61
2023/03/30 09:40:22;;;;;;;2.50;1.40;;;;;;;16.85;27.47;100876.28;108504;1276;23061;-62
2023/03/30 09:43:00;;;;;;;3.20;1.20;;;;;;;16.87;27.61;100874.29;108591;1281;21985;-69
2023/03/30 09:45:29;;;;;;;4.50;2.00;;;;;;;16.93;28.55;100877.48;108401;1281;21977;-61
2023/03/30 09:47:55;;;;;;;3.20;1.50;;;;;;;17.09;27.64;100870.29;108622;1281;24322;-68
2023/03/30 09:50:26;;;;;;;3.40;1.70;;;;;;;17.27;27.64;100862.97;108369;1281;21992;-68
2023/03/30 09:53:23;;;;;;;4.50;1.80;;;;;;;17.38;26.99;100858.52;108442;1281;22014;-60
2023/03/30 09:56:10;;;;;;;3.60;1.40;;;;;;;17.41;26.75;100859.47;108516;1281;21984;-69
2023/03/30 09:58:37;;;;;;;2.40;1.40;;;;;;;17.24;26.53;100852.60;108394;1281;23612;-61
2023/03/30 10:01:15;;;;;;;2.90;1.40;;;;;;;17.18;27.18;100850.48;108177;1280;21983;-61
2023/03/30 10:04:04;;;;;;;5.20;1.90;;;;;;;17.41;28.27;100842.62;108350;1281;22000;-68
2023/03/30 10:06:30;;;;;;;3.20;1.60;;;;;;;17.61;27.50;100838.24;108424;1281;21975;-61
2023/03/30 10:08:56;;;;;;;4.40;1.40;;;;;;;17.51;27.28;100837.68;108353;1281;21975;-60
2023/03/30 10:11:42;;;;;;;2.40;1.20;;;;;;;17.54;26.59;100835.29;107540;1281;1003109;-61
2023/03/30 10:14:34;;;;;;;4.00;1.40;;;;;;;17.64;27.37;100837.60;108537;1281;21979;-68
2023/03/30 10:17:05;;;;;;;4.00;1.40;;;;;;;17.73;26.76;100831.09;108434;1281;22015;-61
2023/03/30 10:19:33;;;;;;;3.90;1.90;;;;;;;17.84;26.95;100827.86;108319;1281;21977;-61
2023/03/30 10:22:03;;;;;;;3.80;1.50;;;;;;;17.78;26.43;100823.98;108491;1281;21985;-68
2023/03/30 10:24:32;;;;;;;2.80;1.20;;;;;;;17.59;26.76;100827.13;108420;1282;22031;-68
2023/03/30 10:27:06;;;;;;;7.70;2.10;;;;;;;17.52;27.39;100823.48;108509;1282;22451;-65
2023/03/30 10:29:31;;;;;;;3.80;1.60;;;;;;;17.67;27.03;100821.52;108422;1281;21977;-68
2023/03/30 10:32:01;;;;;;;5.40;1.90;;;;;;;17.87;26.25;100813.37;108514;1281;22449;-61
2023/03/30 10:34:36;;;;;;;5.60;1.60;;;;;;;18.00;25.79;100813.80;108424;1281;22444;-67
2023/03/30 10:37:04;;;;;;;3.60;1.70;;;;;;;18.08;26.75;100810.17;108525;1281;21984;-69
2023/03/30 10:39:32;;;;;;;4.90;1.70;;;;;;;17.96;27.35;100804.70;108536;1281;21983;-68
2023/03/30 10:42:03;;;;;;;3.80;1.70;;;;;;;18.14;26.86;100801.23;108560;1281;21981;-61
2023/03/30 10:44:36;;;;;;;4.60;1.70;;;;;;;18.19;25.29;100799.11;108583;1281;22756;-60
2023/03/30 10:47:31;;;;;;;4.00;1.80;;;;;;;18.23;25.69;100804.64;108528;1281;23026;-67
2023/03/30 10:50:07;;;;;;;7.70;1.70;;;;;;;18.63;27.40;100801.72;108387;1282;21987;-68
2023/03/30 10:52:40;;;;;;;2.80;1.60;;;;;;;18.86;26.59;100805.98;108505;1282;23124;-70
2023/03/30 10:55:12;;;;;;;3.80;1.70;;;;;;;18.85;25.35;100798.90;108455;1281;22017;-62
2023/03/30 10:58:10;;;;;;;3.10;1.50;;;;;;;18.76;25.23;100797.48;108467;1281;21991;-70
2023/03/30 11:00:55;;;;;;;7.00;1.60;;;;;;;18.79;25.99;100795.38;108462;1281;21978;-62
2023/03/30 11:03:25;;;;;;;3.40;1.80;;;;;;;18.85;25.85;100789.11;108484;1281;21974;-61
2023/03/30 11:05:53;;;;;;;2.70;1.40;;;;;;;19.00;25.99;100777.66;108524;1281;21974;-69
2023/03/30 11:08:25;;;;;;;3.70;1.30;;;;;;;19.01;24.51;100779.76;108548;1281;21980;-61
2023/03/30 11:10:53;;;;;;;3.20;1.40;;;;;;;18.94;24.21;100775.06;108672;1281;23637;-61
2023/03/30 11:13:29;;;;;;;2.90;1.80;;;;;;;19.03;25.12;100770.97;108652;1281;21989;-70
2023/03/30 11:16:03;;;;;;;3.20;1.10;;;;;;;18.93;24.02;100765.31;108452;1281;21980;-61
2023/03/30 11:18:48;;;;;;;3.30;1.40;;;;;;;18.63;23.79;100762.09;108535;1281;21982;-61
2023/03/30 11:21:49;;;;;;;2.50;1.10;;;;;;;18.73;24.37;100762.41;108490;1281;21983;-68
2023/03/30 11:24:17;;;;;;;3.20;1.40;;;;;;;18.79;24.40;100757.16;108554;1281;21988;-68
2023/03/30 11:27:14;;;;;;;2.60;1.20;;;;;;;18.53;23.86;100756.59;108510;1281;21982;-67
2023/03/30 11:30:00;;;;;;;3.20;1.50;;;;;;;18.63;25.17;100754.95;108493;1281;21980;-67
2023/03/30 11:32:40;;;;;;;3.40;1.70;;;;;;;18.94;25.55;100738.63;108413;1281;21976;-61
2023/03/30 11:35:17;;;;;;;6.30;1.50;;;;;;;19.11;23.80;100742.21;108475;1281;21984;-60
2023/03/30 11:38:17;;;;;;;4.70;1.30;;;;;;;19.11;22.71;100744.86;108523;1280;22993;-68